ADDS METAR Data INFO
IDs: Format: Raw Decoded Include TAF

Data at: 0717 UTC 24 Jun 2018

KTAN 240714Z AUTO 00000KT 6SM BR OVC004 16/14 A2981 RMK AO2 T01560144
KTAN 240652Z AUTO 01003KT 10SM OVC005 16/14 A2981 RMK AO2 SLP095 T01560139
KTAN 240630Z AUTO 00000KT 10SM OVC006 15/14 A2981 RMK AO2 CIG 004V009 T01500139
KTAN 240552Z AUTO 00000KT 10SM OVC005 16/14 A2981 RMK AO2 SLP096 T01560139 10161 20150 58004
KTAN 240548Z AUTO 00000KT 10SM OVC005 16/14 A2982 RMK AO2
KTAN 240534Z AUTO 00000KT 10SM OVC006 16/14 A2983 RMK AO2 T01560144
KTAN 240522Z AUTO 00000KT 10SM BKN005 OVC012 16/14 A2983 RMK AO2 CIG 004V008 T01560139
KTAN 240512Z AUTO 00000KT 10SM OVC006 16/14 A2983 RMK AO2 CIG 004V010 T01560144
KTAN 240452Z AUTO 34003KT 10SM OVC004 15/14 A2984 RMK AO2 SLP103 T01500139 401830117
KTAN 240352Z AUTO VRB05KT 9SM OVC004 15/14 A2983 RMK AO2 SLP100 T01500144
KTAN 240252Z AUTO VRB03KT 4SM BR OVC004 16/14 A2983 RMK AO2 SLP101 T01560144 50004
KTAN 240152Z AUTO 00000KT 6SM BR OVC003 16/14 A2984 RMK AO2 SLP105 T01560144
KTAN 240052Z AUTO 35005KT 4SM BR OVC003 16/14 A2983 RMK AO2 SLP101 T01560144
KTAN 232352Z AUTO VRB03KT 5SM BR OVC004 16/15 A2982 RMK AO2 SLP098 60000 T01610150 10178 20161 56006
KTAN 232252Z AUTO 00000KT 4SM BR OVC004 16/15 A2982 RMK AO2 SLP098 T01610150
KTAN 232230Z AUTO VRB03KT 3SM BR OVC004 16/15 A2982 RMK AO2 CIG 002V006 T01610150
KTAN 232213Z AUTO 02004KT 2SM BR OVC003 16/15 A2982 RMK AO2 CIG 002V008 T01610150
KTAN 232206Z AUTO 00000KT 1 3/4SM BR OVC005 17/16 A2982 RMK AO2 CIG 002V008 T01670156
KTAN 232152Z AUTO VRB04KT 1 1/2SM BR OVC004 17/16 A2983 RMK AO2 CIG 003V008 SLP101 T01670156
KTAN 232145Z AUTO VRB03KT 1 3/4SM BR OVC004 16/15 A2983 RMK AO2 CIG 003V008 T01610150
KTAN 232122Z AUTO 00000KT 1 3/4SM BR OVC005 17/15 A2984 RMK AO2 T01670150
KTAN 232103Z AUTO VRB03KT 2 1/2SM BR OVC005 16/15 A2984 RMK AO2 T01610150
KTAN 232052Z AUTO VRB04KT 2 1/2SM BR OVC006 17/15 A2984 RMK AO2 CIG 004V009 SLP104 60000 T01670150 56017
KTAN 232030Z AUTO VRB05KT 2SM BR OVC006 17/15 A2984 RMK AO2 CIG 005V009 T01670150
KTAN 232014Z AUTO VRB04KT 2 1/2SM BR OVC005 17/15 A2985 RMK AO2 CIG 004V008 T01670150
KTAN 231952Z AUTO VRB05KT 2 1/2SM BR OVC006 17/15 A2985 RMK AO2 SLP107 T01670150
KTAN 231943Z AUTO 07004KT 2SM BR OVC006 17/15 A2985 RMK AO2 T01670150
KTAN 231912Z AUTO 04006KT 10SM OVC009 17/14 A2986 RMK AO2 T01720144
KTAN 231852Z AUTO VRB06KT 10SM OVC010 17/14 A2986 RMK AO2 RAB1756E10 SLP111 P0000 T01720144
KTAN 231752Z AUTO VRB05KT 10SM OVC011 18/14 A2989 RMK AO2 SLP120 60001 T01780144 10183 20167 58020
KTAN 231652Z AUTO VRB04KT 10SM OVC013 18/13 A2991 RMK AO2 SLP128 T01780133
KTAN 231552Z AUTO 08004KT 10SM OVC014 18/13 A2993 RMK AO2 SLP134 T01780128
KTAN 231501Z AUTO 10006KT 10SM OVC017 17/12 A2994 RMK AO2 T01670122
KTAN 231452Z AUTO 09007KT 10SM BKN013 OVC019 17/12 A2995 RMK AO2 SLP140 60001 T01670122 58013
KTAN 231432Z AUTO 12006KT 10SM BKN013 BKN020 OVC049 17/13 A2996 RMK AO2 T01670133
KTAN 231421Z AUTO VRB03KT 10SM SCT015 BKN020 OVC049 17/13 A2996 RMK AO2 T01720133
KTAN 231352Z AUTO 09009KT 10SM FEW029 FEW042 OVC050 17/12 A2996 RMK AO2 RAB20E30 SLP146 P0000 T01670122
KTAN 231252Z AUTO 07003KT 10SM BKN070 BKN090 BKN110 17/13 A2997 RMK AO2 RAB1153E43 SLP149 P0001 T01670133
KTAN 231152Z AUTO 00000KT 10SM FEW049 BKN080 OVC120 16/12 A2998 RMK AO2 SLP153 T01610122 10161 20117 56007
KTAN 231052Z AUTO 00000KT 10SM FEW060 SCT090 BKN110 16/12 A2999 RMK AO2 SLP154 T01560117
KTAN 230952Z AUTO 00000KT 10SM SCT100 16/11 A2999 RMK AO2 SLP155 T01560106
KTAN 230852Z AUTO 00000KT 10SM CLR 14/12 A3000 RMK AO2 SLP160 T01390122 56012
KTAN 230752Z AUTO 00000KT 10SM CLR 13/12 A3000 RMK AO2 SLP160 T01280117
KTAN 230652Z AUTO 00000KT 10SM CLR 12/11 A3003 RMK AO2 SLP167 T01220111
KTAN 230552Z AUTO 00000KT 10SM CLR 13/12 A3004 RMK AO2 SLP171 T01280117 10183 20122 58009
KTAN 230452Z AUTO 00000KT 10SM CLR 13/12 A3005 RMK AO2 SLP174 T01330122 402610106
KTAN 230352Z AUTO 00000KT 10SM CLR 13/12 A3006 RMK AO2 SLP178 T01330117
KTAN 230252Z AUTO 00000KT 10SM CLR 13/12 A3007 RMK AO2 SLP181 T01280117 50004
KTAN 230152Z AUTO 00000KT 10SM CLR 12/11 A3007 RMK AO2 SLP183 T01220106
KTAN 230052Z AUTO 14003KT 10SM CLR 16/11 A3006 RMK AO2 SLP178 T01610111
KTAN 222352Z AUTO 14005KT 10SM CLR 18/11 A3005 RMK AO2 SLP177 T01830111 10261 20183 51003
KTAN 222252Z AUTO 14004KT 10SM CLR 19/11 A3005 RMK AO2 SLP177 T01940111
KTAN 222152Z AUTO 16006KT 10SM CLR 21/12 A3005 RMK AO2 SLP175 T02060122
KTAN 222052Z AUTO 14008KT 10SM CLR 22/13 A3005 RMK AO2 SLP174 T02170133 53005
KTAN 221952Z AUTO 13010KT 10SM CLR 24/10 A3004 RMK AO2 SLP173 T02440100